createdAt,value
2024-04-18T00:00:17.411Z,41.10
2024-04-18T00:03:18.886Z,37.80
2024-04-18T00:06:20.389Z,38.50
2024-04-18T00:09:21.821Z,35.00
2024-04-18T00:12:23.276Z,39.90
2024-04-18T00:15:25.107Z,39.80
2024-04-18T00:18:26.693Z,46.30
2024-04-18T00:24:29.633Z,50.20
2024-04-18T00:30:32.623Z,46.80
2024-04-18T00:33:34.191Z,50.90
2024-04-18T00:36:35.820Z,62.50
2024-04-18T00:39:37.329Z,56.00
2024-04-18T00:42:39.397Z,58.70
2024-04-18T00:45:41.034Z,56.20
2024-04-18T00:48:42.600Z,53.20
2024-04-18T00:51:44.631Z,58.70
2024-04-18T00:54:47.385Z,54.30
2024-04-18T00:57:49.197Z,51.00
2024-04-18T01:00:51.278Z,57.10
2024-04-18T01:03:52.945Z,57.30
2024-04-18T01:09:55.810Z,53.20
2024-04-18T01:12:57.973Z,51.10
2024-04-18T01:15:59.352Z,46.40
2024-04-18T01:19:00.861Z,46.30
2024-04-18T01:22:05.070Z,47.50
2024-04-18T01:25:07.431Z,46.00
2024-04-18T01:28:08.925Z,42.70
2024-04-18T01:31:10.368Z,46.50
2024-04-18T01:34:12.222Z,50.10
2024-04-18T01:37:13.879Z,52.50
2024-04-18T01:43:16.704Z,56.40
2024-04-18T01:46:20.223Z,57.50
2024-04-18T01:49:21.669Z,49.60
2024-04-18T01:52:23.066Z,53.00
2024-04-18T01:55:24.490Z,59.00
2024-04-18T01:58:25.907Z,65.50
2024-04-18T02:01:27.330Z,75.10
2024-04-18T02:04:28.919Z,79.30
2024-04-18T02:07:30.403Z,75.00
2024-04-18T02:10:31.817Z,77.40
2024-04-18T02:13:33.783Z,77.90
2024-04-18T02:16:35.312Z,73.20
2024-04-18T02:19:36.729Z,78.60
2024-04-18T02:22:38.199Z,72.60
2024-04-18T02:25:39.769Z,69.00
2024-04-18T02:28:41.598Z,60.70
2024-04-18T02:31:42.993Z,60.10
2024-04-18T02:34:44.406Z,57.40
2024-04-18T02:37:45.780Z,53.70
2024-04-18T02:40:47.258Z,55.80
2024-04-18T02:43:52.985Z,58.40
2024-04-18T02:46:54.558Z,91.20
2024-04-18T02:49:55.944Z,60.40
2024-04-18T02:52:57.326Z,58.90
2024-04-18T02:55:58.671Z,58.60
2024-04-18T02:59:00.085Z,55.30
2024-04-18T03:02:01.469Z,57.30
2024-04-18T03:05:02.973Z,58.30
2024-04-18T03:08:04.806Z,53.30
2024-04-18T03:14:07.576Z,64.50
2024-04-18T03:17:09.895Z,64.50
2024-04-18T03:20:11.301Z,55.90
2024-04-18T03:23:12.840Z,58.80
2024-04-18T03:26:14.446Z,246.80
2024-04-18T03:29:16.239Z,168.50
2024-04-18T03:35:18.938Z,50.60
2024-04-18T03:38:20.272Z,114.10
2024-04-18T03:41:21.795Z,75.90
2024-04-18T03:47:24.823Z,66.20
2024-04-18T03:50:26.267Z,63.80
2024-04-18T03:53:27.732Z,59.70
2024-04-18T03:56:29.130Z,68.40
2024-04-18T03:59:33.386Z,67.00
2024-04-18T04:02:34.834Z,67.90
2024-04-18T04:05:36.338Z,64.20
2024-04-18T04:08:38.457Z,135.70
2024-04-18T04:11:39.852Z,320.30
2024-04-18T04:14:41.291Z,161.90
2024-04-18T04:17:45.422Z,183.20
2024-04-18T04:20:46.926Z,69.20
2024-04-18T04:23:48.599Z,157.10
2024-04-18T04:26:51.180Z,201.80
2024-04-18T04:29:52.597Z,190.40
2024-04-18T04:32:54.075Z,108.70
2024-04-18T04:35:56.130Z,226.10
2024-04-18T04:38:57.508Z,101.20
2024-04-18T04:41:59.114Z,92.10
2024-04-18T04:45:00.502Z,65.00
2024-04-18T04:48:01.958Z,73.30
2024-04-18T04:51:03.449Z,93.30
2024-04-18T04:54:05.176Z,83.40
2024-04-18T05:00:08.524Z,71.20
2024-04-18T05:03:10.246Z,63.70
2024-04-18T05:09:16.658Z,63.30
2024-04-18T05:12:18.142Z,88.00
2024-04-18T05:15:20.100Z,96.90
2024-04-18T05:18:21.525Z,86.10
2024-04-18T05:21:23.054Z,91.40
2024-04-18T05:24:24.559Z,73.40
2024-04-18T05:27:26.044Z,73.90
2024-04-18T05:30:27.582Z,69.30
2024-04-18T05:33:29.251Z,55.50
2024-04-18T05:39:32.001Z,46.70
2024-04-18T05:42:33.767Z,48.40
2024-04-18T05:45:35.392Z,48.70
2024-04-18T05:48:36.852Z,43.70
2024-04-18T05:51:38.295Z,40.50
2024-04-18T05:54:39.855Z,43.30
2024-04-18T06:00:43.777Z,39.40
2024-04-18T06:03:45.292Z,38.80
2024-04-18T06:09:48.300Z,38.20
2024-04-18T06:12:49.865Z,35.00
2024-04-18T06:15:52.283Z,38.10
2024-04-18T06:18:55.878Z,37.80
2024-04-18T06:21:57.417Z,38.30
2024-04-18T06:24:58.907Z,35.60
2024-04-18T06:28:00.528Z,33.10
2024-04-18T06:31:02.147Z,33.50
2024-04-18T06:34:03.780Z,33.10
2024-04-18T06:37:08.008Z,31.70
2024-04-18T06:40:10.006Z,30.50
2024-04-18T06:43:11.545Z,34.80
2024-04-18T06:46:12.873Z,29.00
2024-04-18T06:52:15.698Z,27.00
2024-04-18T06:55:17.094Z,27.60
2024-04-18T06:58:18.503Z,25.40
2024-04-18T07:01:19.938Z,26.00
2024-04-18T07:04:21.404Z,26.40
2024-04-18T07:07:22.872Z,27.10
2024-04-18T07:10:24.314Z,25.50
2024-04-18T07:13:25.747Z,24.60
2024-04-18T07:16:27.188Z,22.10
2024-04-18T07:19:28.655Z,21.10
2024-04-18T07:22:30.695Z,24.50
2024-04-18T07:25:32.606Z,24.90
2024-04-18T07:28:42.556Z,23.80
2024-04-18T07:31:44.087Z,24.20
2024-04-18T07:34:45.512Z,22.20
2024-04-18T07:37:47.043Z,24.40
2024-04-18T07:40:48.419Z,23.60
2024-04-18T07:43:50.457Z,23.70
2024-04-18T07:46:56.492Z,24.10
2024-04-18T07:49:57.987Z,23.60
2024-04-18T07:53:07.646Z,20.30
2024-04-18T07:56:11.594Z,20.50
2024-04-18T07:59:14.101Z,19.90
2024-04-18T08:02:18.343Z,20.30
2024-04-18T08:05:22.509Z,21.10
2024-04-18T08:08:28.874Z,22.10
2024-04-18T08:12:04.122Z,23.50
2024-04-18T08:14:55.907Z,21.20
2024-04-18T08:17:59.934Z,23.50
2024-04-18T08:21:01.524Z,21.40
2024-04-18T08:24:04.498Z,21.50
2024-04-18T08:27:07.219Z,19.90
2024-04-18T08:30:09.339Z,19.30
2024-04-18T08:33:12.409Z,19.90
2024-04-18T08:36:13.891Z,20.50
2024-04-18T08:39:15.840Z,17.60
2024-04-18T08:42:22.807Z,18.20
2024-04-18T08:45:26.787Z,17.60
2024-04-18T08:48:30.540Z,17.30
2024-04-18T08:51:34.581Z,15.40
2024-04-18T08:54:38.583Z,18.80
2024-04-18T08:58:02.906Z,18.10
2024-04-18T09:01:15.021Z,16.80
2024-04-18T09:04:18.618Z,16.00
2024-04-18T09:07:28.670Z,12.60
2024-04-18T09:10:30.841Z,12.40
2024-04-18T09:13:32.324Z,11.20
2024-04-18T09:16:34.011Z,10.20
2024-04-18T09:19:35.528Z,13.10
2024-04-18T09:22:36.956Z,6.90
2024-04-18T09:25:45.840Z,7.00
2024-04-18T09:28:50.870Z,8.40
2024-04-18T09:32:26.838Z,7.60
2024-04-18T09:35:31.620Z,8.80
2024-04-18T09:42:01.790Z,5.50
2024-04-18T09:45:08.062Z,7.50
2024-04-18T09:48:16.878Z,8.20
2024-04-18T09:51:21.783Z,8.80
2024-04-18T09:54:24.034Z,7.80
2024-04-18T09:57:29.185Z,4.80
2024-04-18T10:00:37.326Z,7.50
2024-04-18T10:03:39.599Z,5.70
2024-04-18T10:06:42.501Z,9.30
2024-04-18T10:09:49.710Z,6.60
2024-04-18T10:13:12.122Z,6.30
2024-04-18T10:16:14.814Z,8.40
2024-04-18T10:19:24.023Z,7.90
2024-04-18T10:22:45.226Z,7.60
2024-04-18T10:25:49.175Z,7.20
2024-04-18T10:28:50.919Z,7.30
2024-04-18T10:31:53.573Z,8.80
2024-04-18T10:35:00.800Z,8.80
2024-04-18T10:38:02.380Z,9.70
2024-04-18T10:41:04.830Z,8.20
2024-04-18T10:44:09.095Z,9.20
2024-04-18T10:47:10.611Z,14.10
2024-04-18T10:50:19.144Z,10.10
2024-04-18T10:56:24.761Z,11.00
2024-04-18T10:59:26.259Z,9.40
2024-04-18T11:02:33.984Z,12.10
2024-04-18T11:05:35.742Z,11.30
2024-04-18T11:08:37.266Z,7.70
2024-04-18T11:11:38.767Z,9.90
2024-04-18T11:14:40.442Z,9.20
2024-04-18T11:17:42.132Z,10.10
2024-04-18T11:20:46.405Z,13.00
2024-04-18T11:23:59.312Z,14.10
2024-04-18T11:27:03.990Z,12.30
2024-04-18T11:30:06.460Z,14.70
2024-04-18T11:33:11.142Z,16.70
2024-04-18T11:36:14.660Z,16.10
2024-04-18T11:39:16.117Z,13.10
2024-04-18T11:42:17.592Z,15.80
2024-04-18T11:45:19.097Z,12.00
2024-04-18T11:48:39.887Z,14.90
2024-04-18T11:51:42.733Z,14.30
2024-04-18T11:54:44.102Z,12.20
2024-04-18T12:01:11.250Z,15.50
2024-04-18T12:04:12.840Z,13.10
2024-04-18T12:07:14.286Z,16.80
2024-04-18T12:10:15.760Z,13.10
2024-04-18T12:13:18.377Z,15.50
2024-04-18T12:16:19.830Z,14.90
2024-04-18T12:19:23.630Z,14.00
2024-04-18T12:22:25.027Z,15.70
2024-04-18T12:25:26.507Z,13.90
2024-04-18T12:28:30.426Z,14.30
2024-04-18T12:31:34.623Z,13.70
2024-04-18T12:34:38.866Z,16.40
2024-04-18T12:37:50.868Z,10.80
2024-04-18T12:40:52.247Z,10.30
2024-04-18T12:43:55.007Z,10.70
2024-04-18T12:46:56.464Z,12.40
2024-04-18T12:49:57.933Z,10.30
2024-04-18T12:52:59.316Z,13.90
2024-04-18T12:56:00.782Z,8.60
2024-04-18T12:59:02.428Z,8.40
2024-04-18T13:02:04.056Z,9.80
2024-04-18T13:05:05.601Z,12.30
2024-04-18T13:08:17.277Z,12.00
2024-04-18T13:11:33.010Z,12.50
2024-04-18T13:14:34.437Z,7.70
2024-04-18T13:17:35.965Z,7.60
2024-04-18T13:20:37.797Z,7.20
2024-04-18T13:23:39.556Z,9.60
2024-04-18T13:26:41.030Z,8.60
2024-04-18T13:29:42.441Z,9.80
2024-04-18T13:32:43.930Z,9.30
2024-04-18T13:35:47.257Z,11.50
2024-04-18T13:38:49.576Z,9.00
2024-04-18T13:41:52.256Z,12.60
2024-04-18T13:44:54.563Z,11.30
2024-04-18T13:48:03.453Z,10.70
2024-04-18T13:51:05.151Z,11.30
2024-04-18T13:54:06.694Z,10.10
2024-04-18T13:57:08.221Z,12.10
2024-04-18T14:00:10.324Z,10.40
2024-04-18T14:03:11.972Z,7.90
2024-04-18T14:06:13.512Z,10.30
2024-04-18T14:09:15.034Z,9.70
2024-04-18T14:12:16.582Z,8.70
2024-04-18T14:15:20.093Z,9.60
2024-04-18T14:18:21.629Z,15.70
2024-04-18T14:21:23.136Z,11.40
2024-04-18T14:24:24.819Z,9.20
2024-04-18T14:27:27.499Z,7.80
2024-04-18T14:30:30.386Z,8.50
2024-04-18T14:33:31.848Z,7.60
2024-04-18T14:36:33.333Z,9.30
2024-04-18T14:39:34.732Z,13.90
2024-04-18T14:42:36.251Z,7.10
2024-04-18T14:45:37.915Z,12.20
2024-04-18T14:48:47.649Z,9.90
2024-04-18T14:51:53.511Z,10.30
2024-04-18T14:54:57.609Z,9.50
2024-04-18T14:58:04.836Z,8.20
2024-04-18T15:01:06.261Z,9.50
2024-04-18T15:04:10.383Z,10.10
2024-04-18T15:07:11.846Z,10.00
2024-04-18T15:16:18.719Z,11.30
2024-04-18T15:19:20.376Z,14.40
2024-04-18T15:22:21.908Z,16.80
2024-04-18T15:25:41.108Z,14.90
2024-04-18T15:28:46.944Z,12.30
2024-04-18T15:31:48.856Z,16.00
2024-04-18T15:34:50.887Z,13.40
2024-04-18T15:37:54.540Z,13.40
2024-04-18T15:40:57.886Z,12.70
2024-04-18T15:44:02.344Z,12.60
2024-04-18T15:47:03.956Z,14.50
2024-04-18T15:50:05.790Z,13.30
2024-04-18T15:53:07.852Z,13.00
2024-04-18T15:56:09.425Z,15.80
2024-04-18T15:59:10.980Z,12.80
2024-04-18T16:02:12.647Z,12.70
2024-04-18T16:05:14.164Z,13.40
2024-04-18T16:08:15.919Z,16.70
2024-04-18T16:11:17.634Z,16.50
2024-04-18T16:14:25.101Z,15.40
2024-04-18T16:17:26.502Z,17.20
2024-04-18T16:23:29.462Z,16.00
2024-04-18T16:29:32.179Z,13.60
2024-04-18T16:35:38.163Z,14.30
2024-04-18T16:38:39.851Z,13.40
2024-04-18T16:41:41.776Z,15.60
2024-04-18T16:44:43.382Z,16.70
2024-04-18T16:47:44.854Z,16.40
2024-04-18T16:53:51.517Z,21.90
2024-04-18T16:56:52.934Z,20.20
2024-04-18T16:59:54.265Z,18.70
2024-04-18T17:02:55.700Z,16.30
2024-04-18T17:09:07.095Z,17.40
2024-04-18T17:12:08.780Z,18.00
2024-04-18T17:15:10.190Z,15.70
2024-04-18T17:18:18.768Z,20.20
2024-04-18T17:21:20.326Z,19.30
2024-04-18T17:27:23.118Z,20.40
2024-04-18T17:33:26.119Z,20.60
2024-04-18T17:39:29.015Z,23.10
2024-04-18T17:42:30.485Z,24.40
2024-04-18T17:45:31.906Z,26.90
2024-04-18T17:48:33.735Z,24.80
2024-04-18T17:51:35.296Z,25.20
2024-04-18T17:57:38.143Z,24.90
2024-04-18T18:00:39.750Z,26.20
2024-04-18T18:03:41.250Z,26.90
2024-04-18T18:09:44.386Z,23.00
2024-04-18T18:12:46.018Z,26.40
2024-04-18T18:18:49.099Z,22.10
2024-04-18T18:22:00.988Z,23.90
2024-04-18T18:25:06.712Z,25.30
2024-04-18T18:28:08.086Z,25.50
2024-04-18T18:31:09.448Z,24.50
2024-04-18T18:34:16.094Z,26.00
2024-04-18T18:37:17.579Z,26.30
2024-04-18T18:40:19.015Z,29.20
2024-04-18T18:43:20.454Z,27.70
2024-04-18T18:46:21.787Z,34.40
2024-04-18T18:49:23.289Z,32.00
2024-04-18T18:55:28.764Z,34.70
2024-04-18T18:58:43.952Z,32.40
2024-04-18T19:01:51.953Z,32.20
2024-04-18T19:04:53.492Z,33.30
2024-04-18T19:10:56.657Z,31.70
2024-04-18T19:13:58.407Z,32.20
2024-04-18T19:20:01.645Z,37.70
2024-04-18T19:23:05.057Z,41.30
2024-04-18T19:26:06.736Z,43.00
2024-04-18T19:32:09.494Z,41.60
2024-04-18T19:35:13.695Z,42.20
2024-04-18T19:38:16.940Z,39.10
2024-04-18T19:41:18.503Z,36.20
2024-04-18T19:44:19.858Z,38.70
2024-04-18T19:47:24.761Z,36.30
2024-04-18T19:50:27.134Z,34.70
2024-04-18T19:53:28.553Z,32.90
2024-04-18T19:56:30.076Z,32.80
2024-04-18T19:59:31.611Z,33.20
2024-04-18T20:02:33.016Z,30.30
2024-04-18T20:05:35.468Z,31.60
2024-04-18T20:08:36.818Z,30.80
2024-04-18T20:11:38.274Z,33.10
2024-04-18T20:14:39.677Z,33.70
2024-04-18T20:17:41.213Z,31.30
2024-04-18T20:20:42.809Z,32.60
2024-04-18T20:23:44.295Z,33.40
2024-04-18T20:26:45.622Z,36.30
2024-04-18T20:29:47.365Z,37.40
2024-04-18T20:32:48.930Z,37.70
2024-04-18T20:35:50.351Z,41.40
2024-04-18T20:38:51.725Z,40.30
2024-04-18T20:41:53.128Z,41.00
2024-04-18T20:44:54.546Z,39.40
2024-04-18T20:47:55.981Z,35.40
2024-04-18T20:50:57.354Z,41.60
2024-04-18T20:53:58.726Z,35.50
2024-04-18T20:57:00.060Z,34.60
2024-04-18T21:00:01.547Z,33.60
2024-04-18T21:03:03.105Z,28.50
2024-04-18T21:09:06.165Z,26.20
2024-04-18T21:12:07.832Z,25.70
2024-04-18T21:18:10.967Z,30.50
2024-04-18T21:21:12.438Z,25.00
2024-04-18T21:24:14.119Z,25.60
2024-04-18T21:30:17.227Z,27.20
2024-04-18T21:33:18.816Z,25.70
2024-04-18T21:36:20.535Z,23.80
2024-04-18T21:42:23.635Z,26.30
2024-04-18T21:45:25.198Z,25.40
2024-04-18T21:48:27.227Z,29.00
2024-04-18T21:51:29.255Z,30.40
2024-04-18T21:57:32.266Z,28.00
2024-04-18T22:03:35.836Z,25.30
2024-04-18T22:06:37.481Z,27.80
2024-04-18T22:12:40.474Z,23.40
2024-04-18T22:15:42.036Z,24.00
2024-04-18T22:18:43.694Z,23.70
2024-04-18T22:24:46.785Z,23.40
2024-04-18T22:27:48.322Z,23.10
2024-04-18T22:31:00.036Z,25.00
2024-04-18T22:37:03.067Z,26.70
2024-04-18T22:40:05.060Z,27.00
2024-04-18T22:43:06.501Z,27.00
2024-04-18T22:46:08.027Z,27.90
2024-04-18T22:49:09.564Z,27.90
2024-04-18T22:52:11.010Z,30.10
2024-04-18T22:55:12.499Z,29.90
2024-04-18T22:58:14.002Z,30.90
2024-04-18T23:01:15.652Z,33.20
2024-04-18T23:04:17.359Z,34.50
2024-04-18T23:07:18.915Z,35.10
2024-04-18T23:10:20.447Z,35.00
2024-04-18T23:13:21.887Z,36.80
2024-04-18T23:16:23.657Z,43.40
2024-04-18T23:19:25.170Z,40.40
2024-04-18T23:22:26.770Z,41.90
2024-04-18T23:25:28.473Z,44.90
2024-04-18T23:28:29.933Z,45.40
2024-04-18T23:31:31.373Z,43.80
2024-04-18T23:34:32.976Z,45.10
2024-04-18T23:37:34.498Z,45.40
2024-04-18T23:40:36.002Z,41.90
2024-04-18T23:43:37.537Z,44.30
2024-04-18T23:46:40.522Z,46.70
2024-04-18T23:49:41.959Z,45.30
2024-04-18T23:53:02.504Z,49.00
2024-04-18T23:56:22.869Z,45.30
